Time;durP1;ratioP1;P1;durP2;ratioP2;P2;SDS_P1;SDS_P2;PMS_P1;PMS_P2;Temp;Humidity;BMP_temperature;BMP_pressure;BME280_temperature;BME280_humidity;BME280_pressure;Samples;Min_cycle;Max_cycle;Signal;HPM_P1;HPM_P2
2021/12/07 00:02:09;;;;;;;13.00;12.60;;;18.60;58.30;;;;;;5033187;28;20445;-51
2021/12/07 00:04:36;;;;;;;12.80;12.10;;;18.60;58.50;;;;;;5032833;28;20560;-54
2021/12/07 00:07:05;;;;;;;12.47;12.07;;;18.60;59.10;;;;;;5032658;28;20449;-50
2021/12/07 00:09:32;;;;;;;12.70;12.20;;;18.60;59.30;;;;;;5033181;28;20962;-54
2021/12/07 00:12:03;;;;;;;12.53;12.03;;;18.50;59.20;;;;;;5036943;28;20449;-54
2021/12/07 00:14:37;;;;;;;13.00;12.60;;;18.40;59.50;;;;;;5031805;28;20445;-54
2021/12/07 00:17:05;;;;;;;12.40;12.00;;;18.30;59.70;;;;;;5033143;28;20939;-51
2021/12/07 00:19:33;;;;;;;12.87;12.43;;;18.30;59.90;;;;;;5033110;28;20535;-50
2021/12/07 00:22:00;;;;;;;13.03;12.50;;;18.20;60.20;;;;;;5032650;28;20451;-51
2021/12/07 00:24:28;;;;;;;13.27;12.87;;;18.20;60.70;;;;;;5032901;28;20489;-52
2021/12/07 00:26:55;;;;;;;14.13;13.60;;;18.10;60.80;;;;;;5032955;28;20479;-55
2021/12/07 00:29:21;;;;;;;13.43;13.03;;;18.10;61.10;;;;;;5032871;28;20469;-52
2021/12/07 00:31:54;;;;;;;12.80;12.40;;;18.10;61.30;;;;;;5032404;28;20441;-52
2021/12/07 00:34:41;;;;;;;13.40;12.97;;;18.10;61.00;;;;;;5032970;28;20444;-51
2021/12/07 00:37:09;;;;;;;13.07;12.67;;;18.10;61.30;;;;;;5032641;28;20449;-50
2021/12/07 00:39:37;;;;;;;13.07;12.57;;;18.00;61.50;;;;;;5032460;28;20473;-50
2021/12/07 00:42:04;;;;;;;12.87;12.47;;;18.00;61.50;;;;;;5032203;28;20941;-51
2021/12/07 00:44:31;;;;;;;12.40;12.00;;;18.00;61.50;;;;;;5032555;28;20508;-51
2021/12/07 00:46:58;;;;;;;12.97;12.57;;;18.00;61.50;;;;;;5032627;28;20445;-52
2021/12/07 00:49:26;;;;;;;12.80;12.30;;;18.10;61.50;;;;;;5032551;28;20543;-52
2021/12/07 00:51:53;;;;;;;12.93;12.50;;;18.00;61.40;;;;;;5032151;28;20457;-50
2021/12/07 00:54:22;;;;;;;13.10;12.70;;;18.00;61.40;;;;;;5032364;28;20441;-52
2021/12/07 00:56:49;;;;;;;12.80;12.50;;;18.00;61.40;;;;;;5032339;28;20445;-50
2021/12/07 00:59:15;;;;;;;13.10;12.70;;;17.90;61.80;;;;;;5032208;28;20476;-54
2021/12/07 01:01:42;;;;;;;12.30;11.90;;;17.90;61.80;;;;;;5031947;28;20473;-54
2021/12/07 01:04:10;;;;;;;12.63;12.23;;;17.80;62.00;;;;;;5031845;28;20507;-50
2021/12/07 01:06:48;;;;;;;12.40;12.10;;;17.80;62.10;;;;;;5032218;28;20445;-50
2021/12/07 01:09:24;;;;;;;12.67;12.27;;;17.80;62.20;;;;;;5032189;28;20468;-51
2021/12/07 01:25:42;;;;;;;13.03;12.63;;;17.50;63.80;;;;;;5031738;28;20603;-52
2021/12/07 01:28:19;;;;;;;13.30;12.90;;;17.50;64.30;;;;;;5031805;28;20449;-50
2021/12/07 01:30:52;;;;;;;12.90;12.50;;;17.50;64.40;;;;;;5031843;28;20472;-51
2021/12/07 01:36:14;;;;;;;12.73;12.27;;;17.40;64.90;;;;;;5029923;28;20795;-50
2021/12/07 01:41:46;;;;;;;12.37;11.97;;;17.30;65.50;;;;;;5031687;28;20548;-53
2021/12/07 01:47:21;;;;;;;12.73;12.40;;;17.20;66.20;;;;;;4998450;28;20450;-50
2021/12/07 02:00:42;;;;;;;13.07;12.67;;;17.10;67.80;;;;;;5030974;28;20448;-52
2021/12/07 02:03:09;;;;;;;13.37;12.90;;;17.00;68.10;;;;;;5030967;28;20760;-52
2021/12/07 02:05:36;;;;;;;13.17;12.77;;;17.00;68.30;;;;;;5031263;28;20890;-50
2021/12/07 02:08:04;;;;;;;13.40;13.00;;;17.00;68.50;;;;;;5031442;28;20449;-50
2021/12/07 02:10:32;;;;;;;12.60;12.30;;;17.00;68.30;;;;;;5031335;28;21011;-50
2021/12/07 02:13:04;;;;;;;13.07;12.67;;;16.90;68.60;;;;;;5030870;28;20461;-49
2021/12/07 02:15:32;;;;;;;13.40;12.90;;;16.90;68.60;;;;;;5031266;28;20453;-50
2021/12/07 02:17:59;;;;;;;14.20;13.70;;;16.90;68.90;;;;;;5031113;28;20822;-49
2021/12/07 02:20:28;;;;;;;13.10;12.70;;;16.80;68.80;;;;;;5031040;28;20472;-53
2021/12/07 02:22:56;;;;;;;13.50;13.00;;;16.90;69.00;;;;;;5030695;28;20453;-50
2021/12/07 02:25:23;;;;;;;13.93;13.43;;;16.80;69.00;;;;;;5031211;28;20484;-50
2021/12/07 02:27:50;;;;;;;13.60;13.10;;;16.80;68.90;;;;;;5031242;28;20451;-55
2021/12/07 02:30:19;;;;;;;12.43;12.03;;;16.80;69.30;;;;;;5033453;28;20480;-51
2021/12/07 02:32:50;;;;;;;12.80;12.40;;;16.80;69.80;;;;;;5034855;28;20448;-52
2021/12/07 02:35:23;;;;;;;13.60;13.10;;;16.70;69.60;;;;;;5035056;28;21011;-50
2021/12/07 02:37:50;;;;;;;13.33;12.93;;;16.70;70.10;;;;;;5035120;28;20866;-50
2021/12/07 02:40:18;;;;;;;12.90;12.50;;;16.70;70.40;;;;;;5034568;28;20560;-52
2021/12/07 02:42:46;;;;;;;13.30;12.90;;;16.60;70.40;;;;;;5034528;28;20461;-52
2021/12/07 02:45:13;;;;;;;13.57;13.17;;;16.60;70.60;;;;;;5034785;28;20484;-55
2021/12/07 02:47:40;;;;;;;13.47;13.07;;;16.60;70.60;;;;;;5034815;28;20441;-49
2021/12/07 02:50:08;;;;;;;13.83;13.33;;;16.60;70.60;;;;;;5034459;28;20479;-50
2021/12/07 02:52:35;;;;;;;13.63;13.23;;;16.50;70.90;;;;;;5034435;28;20453;-50
2021/12/07 02:55:02;;;;;;;13.47;13.07;;;16.40;71.60;;;;;;5034732;28;20436;-52
2021/12/07 02:57:31;;;;;;;14.10;13.60;;;16.40;72.20;;;;;;5034652;28;20536;-51
2021/12/07 03:00:02;;;;;;;12.53;12.13;;;16.40;72.60;;;;;;5034211;28;20564;-49
2021/12/07 03:02:32;;;;;;;13.93;13.53;;;16.40;72.90;;;;;;5034257;28;20456;-54
2021/12/07 03:05:04;;;;;;;13.60;13.10;;;16.40;73.10;;;;;;5034486;28;20619;-50
2021/12/07 03:07:46;;;;;;;13.90;13.40;;;16.30;73.40;;;;;;5034421;28;20480;-55
2021/12/07 03:26:42;;;;;;;14.10;13.50;;;16.20;75.70;;;;;;5033969;28;20425;-50
2021/12/07 03:29:10;;;;;;;13.80;13.40;;;16.30;76.00;;;;;;5033950;28;20465;-50
2021/12/07 03:31:37;;;;;;;13.60;13.10;;;16.30;76.40;;;;;;5033887;28;20456;-49
2021/12/07 03:34:04;;;;;;;13.00;12.60;;;16.30;76.50;;;;;;5033986;28;20514;-49
2021/12/07 03:36:32;;;;;;;13.23;12.83;;;16.30;76.80;;;;;;5033633;28;20452;-51
2021/12/07 03:38:58;;;;;;;13.97;13.47;;;16.30;76.80;;;;;;5033621;28;20485;-50
2021/12/07 03:41:26;;;;;;;13.27;12.83;;;16.30;76.80;;;;;;5032824;28;21221;-50
2021/12/07 03:43:53;;;;;;;13.63;13.13;;;16.30;77.20;;;;;;5033707;28;20449;-50
2021/12/07 03:46:22;;;;;;;14.63;14.13;;;16.20;77.20;;;;;;5033616;28;20567;-56
2021/12/07 03:48:48;;;;;;;13.43;13.03;;;16.20;77.50;;;;;;5033222;28;20838;-53
2021/12/07 03:51:16;;;;;;;14.03;13.50;;;16.20;77.80;;;;;;5033672;28;20442;-50
2021/12/07 03:53:42;;;;;;;14.07;13.57;;;16.30;77.90;;;;;;5033456;28;20453;-51
2021/12/07 03:56:10;;;;;;;14.13;13.60;;;16.20;78.20;;;;;;5033459;28;20441;-50
2021/12/07 03:58:37;;;;;;;13.13;12.73;;;16.30;78.60;;;;;;5033140;28;20857;-51
2021/12/07 04:01:06;;;;;;;13.23;12.80;;;16.30;78.80;;;;;;5033510;28;20456;-50
2021/12/07 04:03:36;;;;;;;14.40;13.83;;;16.30;78.90;;;;;;5032971;28;20454;-50
2021/12/07 04:06:06;;;;;;;14.53;14.03;;;16.30;78.80;;;;;;5033185;28;20516;-54
2021/12/07 04:08:35;;;;;;;13.97;13.57;;;16.30;79.00;;;;;;5032781;28;20448;-50
2021/12/07 04:11:02;;;;;;;12.90;12.50;;;16.20;79.00;;;;;;5033316;28;20449;-50
2021/12/07 04:13:29;;;;;;;13.20;12.80;;;16.20;79.30;;;;;;5033009;28;20449;-52
2021/12/07 04:15:57;;;;;;;14.23;13.73;;;16.30;79.70;;;;;;5033163;28;20946;-49
2021/12/07 04:18:25;;;;;;;14.30;13.70;;;16.30;79.60;;;;;;5032816;28;20950;-51
2021/12/07 04:20:54;;;;;;;13.77;13.33;;;16.20;80.40;;;;;;5033080;28;20461;-50
2021/12/07 04:23:21;;;;;;;13.77;13.27;;;16.20;80.80;;;;;;5032750;28;20472;-50
2021/12/07 04:25:47;;;;;;;12.80;12.50;;;16.20;80.20;;;;;;5032887;28;21009;-51
2021/12/07 04:28:15;;;;;;;12.50;12.10;;;16.20;81.30;;;;;;5032866;28;20472;-50
2021/12/07 04:30:43;;;;;;;13.60;13.20;;;16.20;81.50;;;;;;5032974;28;20461;-50
2021/12/07 04:33:13;;;;;;;13.10;12.50;;;16.20;81.60;;;;;;5032721;28;21001;-50
2021/12/07 04:35:44;;;;;;;13.67;13.27;;;16.20;81.70;;;;;;5032556;28;20445;-50
2021/12/07 04:38:13;;;;;;;14.07;13.53;;;16.20;82.10;;;;;;5032784;28;20449;-50
2021/12/07 04:40:39;;;;;;;13.67;13.23;;;16.20;82.20;;;;;;5032545;28;20562;-54
2021/12/07 04:43:07;;;;;;;13.43;12.97;;;16.20;82.50;;;;;;5032442;28;20453;-50
2021/12/07 04:45:47;;;;;;;14.87;14.27;;;16.20;82.90;;;;;;5032073;28;20488;-53
2021/12/07 04:48:37;;;;;;;13.67;13.03;;;16.20;82.30;;;;;;5032612;28;20899;-50
2021/12/07 04:59:19;;;;;;;12.90;12.50;;;16.20;83.70;;;;;;5032452;28;20440;-50
2021/12/07 05:01:47;;;;;;;13.50;13.00;;;16.30;85.10;;;;;;5032234;28;20449;-52
2021/12/07 05:04:19;;;;;;;14.40;13.90;;;16.30;85.60;;;;;;5031922;28;20867;-50
2021/12/07 05:06:49;;;;;;;14.90;14.20;;;16.40;85.20;;;;;;5014326;28;21014;-51
2021/12/07 05:09:33;;;;;;;14.40;13.50;;;16.40;85.10;;;;;;5032090;28;20800;-50
2021/12/07 05:12:21;;;;;;;14.93;14.40;;;16.50;85.40;;;;;;5032055;28;20472;-54
2021/12/07 05:14:47;;;;;;;14.30;13.90;;;16.50;85.30;;;;;;5032164;28;20452;-50
2021/12/07 05:17:25;;;;;;;14.20;13.70;;;16.50;85.70;;;;;;5031652;28;20495;-52
2021/12/07 05:26:01;;;;;;;15.10;14.60;;;16.50;85.80;;;;;;5031830;28;20903;-50
2021/12/07 05:39:28;;;;;;;15.47;14.97;;;16.50;86.90;;;;;;5032163;28;20459;-50
2021/12/07 05:41:57;;;;;;;15.17;14.53;;;16.50;87.20;;;;;;5031539;28;20441;-50
2021/12/07 05:44:24;;;;;;;15.13;14.60;;;16.50;86.90;;;;;;5031639;28;20447;-50
2021/12/07 05:46:51;;;;;;;15.17;14.67;;;16.50;87.30;;;;;;5031054;28;20834;-50
2021/12/07 05:49:17;;;;;;;14.93;14.43;;;16.40;88.40;;;;;;5031327;28;20469;-54
2021/12/07 05:51:44;;;;;;;13.80;13.40;;;16.70;90.60;;;;;;5031464;28;20818;-50
2021/12/07 05:54:11;;;;;;;14.80;14.23;;;17.60;85.90;;;;;;5031422;28;20799;-50
2021/12/07 05:56:37;;;;;;;15.10;14.60;;;18.20;79.40;;;;;;5031279;28;20441;-54
2021/12/07 05:59:05;;;;;;;16.23;15.50;;;18.60;75.60;;;;;;5031483;28;20469;-50
2021/12/07 06:01:32;;;;;;;15.33;14.80;;;18.90;73.00;;;;;;5031232;28;20448;-52
2021/12/07 06:03:59;;;;;;;15.73;15.03;;;19.20;71.60;;;;;;5032047;28;20441;-50
2021/12/07 06:06:26;;;;;;;15.73;14.93;;;19.40;71.50;;;;;;5035322;28;20476;-55
2021/12/07 06:08:52;;;;;;;15.63;14.93;;;19.40;73.50;;;;;;5035190;28;20887;-50
2021/12/07 06:11:21;;;;;;;16.80;15.10;;;19.60;76.70;;;;;;5035477;28;20457;-52
2021/12/07 06:13:48;;;;;;;17.10;16.03;;;19.70;80.80;;;;;;5035238;28;20448;-51
2021/12/07 06:16:17;;;;;;;16.27;15.33;;;19.80;84.90;;;;;;5035099;28;20453;-50
2021/12/07 06:18:44;;;;;;;16.83;16.00;;;19.80;86.80;;;;;;5035482;28;20468;-52
2021/12/07 06:21:12;;;;;;;17.93;16.37;;;19.80;88.60;;;;;;5035294;28;20441;-58
2021/12/07 06:23:39;;;;;;;17.53;16.17;;;19.80;90.70;;;;;;5034770;28;20864;-54
2021/12/07 06:26:06;;;;;;;16.97;16.00;;;19.70;90.70;;;;;;5035222;28;20498;-60
2021/12/07 06:28:33;;;;;;;18.23;16.80;;;19.70;90.50;;;;;;5034670;28;20441;-60
2021/12/07 06:31:00;;;;;;;16.53;15.73;;;19.70;89.70;;;;;;5035299;28;20795;-57
2021/12/07 06:33:28;;;;;;;17.40;16.10;;;19.70;87.30;;;;;;5035040;28;20510;-60
2021/12/07 06:35:57;;;;;;;17.87;16.73;;;19.60;85.40;;;;;;5035113;28;20448;-59
2021/12/07 06:38:25;;;;;;;16.70;15.70;;;19.60;83.90;;;;;;5034913;28;20449;-57
2021/12/07 06:40:52;;;;;;;18.53;17.07;;;19.70;82.80;;;;;;5035135;28;20452;-58
2021/12/07 06:43:19;;;;;;;16.90;15.83;;;19.70;81.70;;;;;;5034901;28;20778;-57
2021/12/07 06:45:46;;;;;;;16.57;15.63;;;19.60;81.00;;;;;;5034872;28;20484;-59
2021/12/07 06:48:12;;;;;;;17.30;16.10;;;19.60;80.10;;;;;;5034918;28;20811;-56
2021/12/07 06:50:40;;;;;;;17.87;16.30;;;19.60;78.60;;;;;;5034784;28;20477;-59
2021/12/07 06:53:07;;;;;;;16.37;15.47;;;19.60;77.90;;;;;;5034566;28;20440;-58
2021/12/07 06:55:35;;;;;;;16.90;16.00;;;19.50;76.60;;;;;;5034741;28;20444;-56
2021/12/07 06:58:02;;;;;;;16.30;15.50;;;19.50;75.90;;;;;;5034640;28;20455;-57
2021/12/07 07:00:29;;;;;;;16.57;15.73;;;19.50;75.20;;;;;;5034641;28;20531;-55
2021/12/07 07:02:55;;;;;;;16.10;15.20;;;19.50;75.00;;;;;;5034510;28;20449;-60
2021/12/07 07:05:22;;;;;;;17.03;16.13;;;19.50;74.10;;;;;;5034751;28;20484;-55
2021/12/07 07:07:50;;;;;;;14.77;13.93;;;19.40;73.30;;;;;;5034660;28;20651;-57
2021/12/07 07:10:19;;;;;;;15.70;14.70;;;19.40;73.00;;;;;;5034563;28;20460;-59
2021/12/07 07:12:47;;;;;;;14.87;14.27;;;19.40;72.70;;;;;;5034267;28;20468;-56
2021/12/07 07:15:16;;;;;;;13.37;11.97;;;19.30;72.20;;;;;;5034411;28;20445;-56
2021/12/07 07:17:43;;;;;;;14.73;13.43;;;19.30;71.80;;;;;;5034519;28;20521;-56
2021/12/07 07:20:12;;;;;;;13.03;12.33;;;19.30;71.50;;;;;;5034373;28;20543;-58
2021/12/07 07:22:39;;;;;;;14.47;13.67;;;19.30;70.90;;;;;;5034290;28;20449;-57
2021/12/07 07:25:10;;;;;;;14.27;13.63;;;19.30;70.30;;;;;;5034425;28;20460;-58
2021/12/07 07:27:37;;;;;;;15.60;14.90;;;19.30;69.60;;;;;;5034309;28;20453;-54
2021/12/07 07:30:05;;;;;;;15.27;14.57;;;19.20;68.90;;;;;;5034100;28;20468;-56
2021/12/07 07:32:32;;;;;;;15.60;14.90;;;19.20;68.70;;;;;;5033922;28;20452;-59
2021/12/07 07:34:58;;;;;;;15.30;14.60;;;19.20;68.90;;;;;;5034207;28;20452;-57
2021/12/07 07:37:25;;;;;;;15.17;14.43;;;19.10;68.30;;;;;;5034114;28;20449;-54
2021/12/07 07:39:52;;;;;;;14.40;13.70;;;19.10;68.20;;;;;;5033736;28;20473;-56
2021/12/07 07:42:20;;;;;;;14.33;13.77;;;19.00;67.90;;;;;;5033778;28;20854;-57
2021/12/07 07:44:46;;;;;;;13.90;13.40;;;18.90;67.90;;;;;;5033899;28;20457;-56
2021/12/07 07:47:14;;;;;;;14.40;13.90;;;18.80;67.80;;;;;;5033868;28;20484;-55
2021/12/07 07:49:40;;;;;;;15.00;14.30;;;18.70;68.10;;;;;;5033747;28;20473;-59
2021/12/07 07:52:08;;;;;;;14.30;13.60;;;18.60;68.40;;;;;;5033694;28;20441;-55
2021/12/07 07:54:34;;;;;;;15.40;14.70;;;18.50;68.60;;;;;;5033798;28;20632;-57
2021/12/07 07:57:01;;;;;;;15.83;14.83;;;18.40;68.70;;;;;;5033565;28;20452;-58
2021/12/07 07:59:29;;;;;;;14.77;14.17;;;18.30;69.10;;;;;;5033404;28;20465;-58
2021/12/07 08:01:56;;;;;;;13.87;13.10;;;18.10;69.70;;;;;;5033515;28;20854;-52
2021/12/07 08:04:23;;;;;;;14.40;13.60;;;18.00;69.80;;;;;;5033537;28;20452;-55
2021/12/07 08:06:49;;;;;;;14.70;14.00;;;17.90;70.50;;;;;;5033165;28;20480;-55
2021/12/07 08:09:16;;;;;;;14.90;14.30;;;17.90;70.90;;;;;;5033329;28;20472;-57
2021/12/07 08:11:43;;;;;;;16.20;15.40;;;17.80;70.70;;;;;;5033383;28;20599;-55
2021/12/07 08:14:10;;;;;;;14.27;13.67;;;17.80;71.00;;;;;;5033084;28;20939;-56
2021/12/07 08:16:38;;;;;;;14.60;14.00;;;17.70;71.10;;;;;;5033120;28;20433;-57
2021/12/07 08:19:05;;;;;;;15.40;14.60;;;17.70;71.20;;;;;;5033430;28;20469;-57
2021/12/07 08:21:32;;;;;;;15.07;14.47;;;17.60;71.10;;;;;;5033123;28;20451;-56
2021/12/07 08:23:58;;;;;;;15.20;14.60;;;17.60;71.50;;;;;;5033201;28;20538;-55
2021/12/07 08:26:26;;;;;;;14.77;13.97;;;17.60;71.40;;;;;;5032871;28;20477;-55
2021/12/07 08:28:55;;;;;;;15.40;14.60;;;17.60;71.50;;;;;;5032791;28;20465;-57
2021/12/07 08:31:22;;;;;;;14.97;14.37;;;17.60;71.30;;;;;;5033060;28;20873;-57
2021/12/07 08:33:50;;;;;;;14.90;14.30;;;17.60;71.30;;;;;;5032699;28;20457;-57
2021/12/07 08:36:17;;;;;;;15.90;14.80;;;17.50;71.30;;;;;;5033046;28;20808;-54
2021/12/07 08:38:44;;;;;;;14.93;14.27;;;17.40;71.50;;;;;;5032758;28;20844;-57
2021/12/07 08:41:11;;;;;;;14.60;14.10;;;17.40;71.60;;;;;;5032926;28;20464;-57
2021/12/07 08:43:40;;;;;;;14.83;14.20;;;17.30;71.70;;;;;;5032667;28;20449;-57
2021/12/07 08:46:08;;;;;;;14.73;14.03;;;17.30;72.10;;;;;;5032678;28;20527;-56
2021/12/07 08:48:35;;;;;;;15.07;14.57;;;17.40;71.90;;;;;;5032636;28;20816;-58
2021/12/07 08:51:04;;;;;;;14.53;13.93;;;17.50;71.20;;;;;;5032617;28;20445;-57
2021/12/07 08:53:31;;;;;;;14.30;13.90;;;17.70;70.50;;;;;;5032266;28;20445;-53
2021/12/07 09:01:30;;;;;;;14.47;13.87;;;18.30;67.30;;;;;;5032224;28;20424;-54
2021/12/07 09:03:59;;;;;;;13.60;13.20;;;18.40;66.50;;;;;;5032341;28;20962;-56
2021/12/07 09:06:28;;;;;;;14.37;13.67;;;18.40;65.70;;;;;;5032234;28;20530;-57
2021/12/07 09:08:55;;;;;;;14.83;14.23;;;18.40;65.30;;;;;;5032361;28;20476;-57
2021/12/07 09:11:22;;;;;;;13.67;13.17;;;18.30;65.10;;;;;;5032333;28;20455;-57
2021/12/07 09:13:49;;;;;;;13.33;12.93;;;18.30;65.00;;;;;;5032085;28;20460;-56
2021/12/07 09:16:18;;;;;;;13.40;13.00;;;18.30;64.90;;;;;;5032108;28;20456;-54
2021/12/07 09:18:47;;;;;;;12.80;12.40;;;18.20;64.90;;;;;;5032179;28;20469;-57
2021/12/07 09:21:14;;;;;;;13.70;13.30;;;18.10;65.10;;;;;;5032227;28;20484;-56
2021/12/07 09:23:42;;;;;;;14.17;13.67;;;18.00;65.20;;;;;;5032176;28;20475;-56
2021/12/07 09:26:10;;;;;;;13.50;13.10;;;18.00;65.30;;;;;;5032134;28;20493;-56
2021/12/07 09:28:38;;;;;;;14.67;14.17;;;17.90;65.50;;;;;;5032181;28;20477;-56
2021/12/07 09:31:05;;;;;;;15.40;14.60;;;17.90;65.80;;;;;;5032144;28;20449;-55
2021/12/07 09:33:32;;;;;;;14.70;14.10;;;17.90;65.70;;;;;;5032092;28;20445;-55
2021/12/07 09:36:00;;;;;;;14.73;14.13;;;17.80;65.60;;;;;;5032476;28;20809;-57
2021/12/07 09:38:27;;;;;;;14.43;13.93;;;17.80;65.70;;;;;;5031723;28;20927;-58
2021/12/07 09:40:55;;;;;;;14.40;13.90;;;17.80;65.70;;;;;;5032361;28;20947;-57
2021/12/07 09:43:22;;;;;;;14.83;14.33;;;17.70;65.70;;;;;;5032327;28;20445;-59
2021/12/07 09:45:49;;;;;;;14.23;13.80;;;17.70;65.70;;;;;;5032712;28;20452;-57
2021/12/07 09:48:17;;;;;;;13.70;13.30;;;17.70;65.80;;;;;;5032014;28;20445;-59
2021/12/07 09:50:46;;;;;;;13.50;13.03;;;17.70;65.70;;;;;;5032420;28;20468;-57
2021/12/07 09:53:15;;;;;;;14.10;13.70;;;17.60;65.60;;;;;;5031893;28;20445;-54
2021/12/07 09:55:44;;;;;;;14.40;13.90;;;17.50;65.90;;;;;;5032067;28;20468;-58
2021/12/07 09:58:13;;;;;;;14.40;13.83;;;17.50;66.30;;;;;;5031762;28;20444;-56
2021/12/07 10:00:41;;;;;;;13.93;13.53;;;17.40;66.50;;;;;;5032104;28;20496;-57
2021/12/07 10:03:08;;;;;;;14.50;13.90;;;17.40;66.60;;;;;;5032043;28;20444;-53
2021/12/07 10:05:35;;;;;;;15.30;14.73;;;17.40;66.70;;;;;;5031972;28;20452;-56
2021/12/07 10:08:04;;;;;;;14.27;13.87;;;17.40;66.70;;;;;;5031994;28;20485;-57
2021/12/07 10:10:33;;;;;;;14.63;14.03;;;17.40;66.70;;;;;;5032019;28;20817;-56
2021/12/07 10:13:01;;;;;;;14.03;13.53;;;17.40;66.60;;;;;;5031948;28;20451;-55
2021/12/07 10:15:29;;;;;;;13.77;13.37;;;17.40;66.40;;;;;;5032071;28;20947;-54
2021/12/07 10:18:04;;;;;;;14.67;14.27;;;17.40;66.20;;;;;;5032146;28;20747;-56
2021/12/07 10:20:38;;;;;;;13.87;13.27;;;17.40;66.30;;;;;;5032529;28;20472;-58
2021/12/07 10:23:23;;;;;;;14.33;13.83;;;17.40;66.20;;;;;;5032022;28;20543;-56
2021/12/07 10:25:54;;;;;;;14.30;13.80;;;17.40;66.10;;;;;;5032370;28;20502;-56
2021/12/07 10:28:27;;;;;;;13.60;13.20;;;17.50;65.90;;;;;;5031879;28;20539;-56
2021/12/07 10:30:56;;;;;;;13.97;13.57;;;17.60;65.50;;;;;;5032005;28;20452;-55
2021/12/07 10:33:29;;;;;;;13.97;13.57;;;17.60;65.10;;;;;;5031940;28;20452;-55
2021/12/07 10:36:07;;;;;;;14.00;13.60;;;17.80;64.70;;;;;;5032097;28;20597;-56
2021/12/07 10:38:34;;;;;;;14.20;13.80;;;17.90;64.10;;;;;;5031677;28;20452;-54
2021/12/07 10:41:03;;;;;;;13.50;13.10;;;18.00;63.60;;;;;;5031693;28;20449;-56
2021/12/07 10:43:43;;;;;;;13.33;12.90;;;18.10;62.90;;;;;;5031418;28;20437;-55
2021/12/07 10:46:29;;;;;;;13.40;13.00;;;18.20;62.30;;;;;;5031576;28;20474;-56
2021/12/07 10:49:27;;;;;;;13.53;13.23;;;18.30;61.50;;;;;;5031509;28;20569;-53
2021/12/07 10:52:05;;;;;;;13.33;12.93;;;18.50;60.90;;;;;;5035365;28;20449;-59
2021/12/07 10:54:35;;;;;;;13.40;12.90;;;18.60;60.10;;;;;;5035821;28;20453;-59
2021/12/07 10:57:05;;;;;;;13.67;13.20;;;18.70;59.60;;;;;;5038126;28;20449;-58
2021/12/07 10:59:33;;;;;;;13.63;13.23;;;18.90;59.10;;;;;;5037453;28;20473;-58
2021/12/07 11:02:12;;;;;;;13.50;13.00;;;19.10;58.40;;;;;;5037171;28;20453;-59
2021/12/07 11:04:40;;;;;;;14.00;13.47;;;19.40;57.70;;;;;;5035365;28;20935;-59
2021/12/07 11:07:10;;;;;;;13.70;13.30;;;19.60;57.00;;;;;;5034630;28;20586;-58
2021/12/07 11:09:39;;;;;;;13.80;13.30;;;19.80;56.20;;;;;;5034548;28;20471;-56
2021/12/07 11:12:08;;;;;;;14.00;13.57;;;20.10;56.20;;;;;;5034397;28;20460;-59
2021/12/07 11:14:47;;;;;;;13.70;13.20;;;20.40;55.10;;;;;;5034427;28;20448;-59
2021/12/07 11:17:17;;;;;;;12.50;12.20;;;20.70;54.10;;;;;;5034523;28;20445;-59
2021/12/07 11:19:43;;;;;;;13.90;13.50;;;21.50;52.50;;;;;;5034596;28;20476;-55
2021/12/07 11:22:15;;;;;;;13.97;13.57;;;22.00;50.80;;;;;;5034131;28;20445;-59
2021/12/07 11:24:44;;;;;;;15.30;14.70;;;22.40;49.40;;;;;;5034226;28;20452;-56
2021/12/07 11:29:59;;;;;;;14.30;13.80;;;22.90;47.50;;;;;;5034308;28;20575;-57
2021/12/07 11:32:27;;;;;;;14.53;14.13;;;23.00;46.80;;;;;;5033803;28;20499;-58
2021/12/07 11:34:54;;;;;;;14.73;14.23;;;23.10;46.50;;;;;;5033972;28;20453;-59
2021/12/07 11:37:22;;;;;;;13.90;13.50;;;23.20;46.00;;;;;;5033932;28;20444;-58
2021/12/07 11:39:52;;;;;;;13.70;13.30;;;23.30;45.60;;;;;;5055816;22;20492;-47
2021/12/07 11:42:22;;;;;;;14.30;13.90;;;23.30;45.40;;;;;;5053357;28;20495;-47
2021/12/07 11:44:51;;;;;;;13.87;13.37;;;23.40;45.30;;;;;;5053465;28;20436;-52
2021/12/07 11:47:25;;;;;;;13.80;13.40;;;23.30;45.40;;;;;;5051480;28;20476;-46
2021/12/07 11:49:53;;;;;;;15.03;14.53;;;23.10;45.80;;;;;;5053489;28;21000;-46
2021/12/07 11:52:20;;;;;;;14.43;13.93;;;22.70;47.40;;;;;;5034576;28;20448;-48
2021/12/07 11:54:48;;;;;;;14.77;14.23;;;22.50;47.80;;;;;;5048815;28;20448;-47
2021/12/07 11:57:18;;;;;;;13.93;13.53;;;22.60;48.80;;;;;;5053447;28;20620;-48
2021/12/07 11:59:47;;;;;;;14.90;14.40;;;22.60;49.30;;;;;;5048035;28;20477;-47
2021/12/07 12:02:14;;;;;;;15.10;14.50;;;22.50;49.80;;;;;;5032352;28;20453;-47
2021/12/07 12:04:42;;;;;;;14.63;14.13;;;22.30;50.10;;;;;;5033576;28;20930;-48
2021/12/07 12:07:10;;;;;;;14.77;14.17;;;22.10;50.70;;;;;;5033289;28;20480;-47
2021/12/07 12:09:46;;;;;;;14.43;13.90;;;21.90;51.30;;;;;;5035876;28;20488;-50
2021/12/07 12:12:20;;;;;;;13.80;13.40;;;21.90;51.90;;;;;;5053037;28;20475;-47
2021/12/07 12:14:52;;;;;;;14.70;13.87;;;21.90;52.00;;;;;;5053169;28;20455;-47
2021/12/07 12:17:31;;;;;;;14.43;13.93;;;21.90;52.00;;;;;;5053140;28;20441;-47
2021/12/07 12:20:12;;;;;;;14.20;13.70;;;22.00;51.90;;;;;;5040453;28;20859;-47
2021/12/07 12:22:45;;;;;;;14.97;14.37;;;22.00;51.80;;;;;;5032600;28;20952;-47
2021/12/07 12:25:15;;;;;;;15.20;14.70;;;21.90;51.70;;;;;;5033024;28;20456;-46
2021/12/07 12:27:43;;;;;;;15.30;14.80;;;21.70;51.70;;;;;;5032803;28;20477;-47
2021/12/07 12:30:20;;;;;;;14.70;14.20;;;21.60;51.90;;;;;;5032651;28;20465;-47
2021/12/07 12:32:54;;;;;;;14.40;13.90;;;21.60;51.90;;;;;;5032660;28;20946;-47
2021/12/07 12:35:28;;;;;;;14.63;14.10;;;21.60;51.80;;;;;;5032836;28;20452;-47
2021/12/07 12:37:56;;;;;;;14.73;14.23;;;21.30;51.80;;;;;;5032785;28;20452;-48
2021/12/07 12:40:27;;;;;;;15.07;14.53;;;21.30;52.00;;;;;;5032564;28;20480;-47
2021/12/07 12:42:57;;;;;;;14.90;14.50;;;21.40;52.00;;;;;;5032509;28;20889;-47
2021/12/07 12:45:29;;;;;;;14.43;13.93;;;21.50;51.70;;;;;;5032646;28;20539;-47
2021/12/07 12:48:01;;;;;;;15.20;14.70;;;21.60;51.50;;;;;;5032491;28;20491;-47
2021/12/07 12:50:31;;;;;;;14.97;14.30;;;21.60;51.20;;;;;;5032567;28;20496;-48
2021/12/07 12:53:02;;;;;;;15.23;14.73;;;21.60;51.10;;;;;;5032160;28;20453;-47
2021/12/07 12:55:42;;;;;;;15.43;14.93;;;21.50;51.00;;;;;;5032376;28;20449;-47
2021/12/07 12:58:15;;;;;;;15.07;14.57;;;21.40;51.10;;;;;;5032385;28;20826;-48
2021/12/07 13:01:02;;;;;;;15.00;14.53;;;21.30;51.70;;;;;;5032207;28;20469;-46
2021/12/07 13:03:51;;;;;;;12.80;12.50;;;21.30;51.20;;;;;;5031976;28;20868;-48
2021/12/07 13:06:20;;;;;;;14.83;14.33;;;21.30;51.10;;;;;;5032436;28;20448;-47
2021/12/07 13:09:00;;;;;;;14.53;14.00;;;21.30;51.00;;;;;;5032105;28;20481;-46
2021/12/07 13:11:37;;;;;;;13.50;12.90;;;21.40;51.00;;;;;;5031949;28;20523;-47
2021/12/07 13:14:06;;;;;;;13.97;13.47;;;21.40;50.80;;;;;;5032008;28;20448;-47
2021/12/07 13:16:33;;;;;;;13.30;12.80;;;21.50;50.60;;;;;;5032032;28;20456;-50
2021/12/07 13:19:02;;;;;;;13.40;13.00;;;21.50;50.40;;;;;;5031967;28;20480;-46
2021/12/07 13:21:31;;;;;;;13.40;13.00;;;21.50;50.30;;;;;;5031700;28;20529;-47
2021/12/07 13:24:02;;;;;;;13.90;13.50;;;21.50;50.20;;;;;;5031831;28;20445;-47
2021/12/07 13:26:34;;;;;;;14.47;13.97;;;21.50;50.10;;;;;;5031912;28;20468;-47
2021/12/07 13:29:07;;;;;;;14.13;13.73;;;21.40;50.10;;;;;;5031792;28;20512;-47
2021/12/07 13:31:38;;;;;;;13.90;13.50;;;21.30;50.20;;;;;;5031846;28;20543;-47
2021/12/07 13:34:05;;;;;;;13.87;13.47;;;21.30;50.30;;;;;;5032059;28;20820;-49
2021/12/07 13:36:45;;;;;;;14.17;13.77;;;21.20;50.40;;;;;;5031804;28;20441;-48
2021/12/07 13:39:36;;;;;;;14.10;13.70;;;21.10;50.50;;;;;;5031695;28;21044;-49
2021/12/07 13:42:06;;;;;;;14.90;14.40;;;21.00;50.60;;;;;;5031663;28;20449;-49
2021/12/07 13:44:35;;;;;;;14.20;13.80;;;20.90;50.70;;;;;;5031610;28;20453;-51
2021/12/07 13:47:05;;;;;;;13.77;13.37;;;20.80;50.80;;;;;;5031784;28;20449;-49
2021/12/07 13:49:34;;;;;;;14.00;13.60;;;20.70;50.90;;;;;;5031433;28;20849;-50
2021/12/07 13:52:01;;;;;;;14.10;13.60;;;20.60;51.10;;;;;;5031386;28;20452;-49
2021/12/07 13:54:28;;;;;;;13.87;13.47;;;20.50;51.30;;;;;;5031513;28;20452;-49
2021/12/07 13:56:56;;;;;;;14.10;13.70;;;20.40;51.40;;;;;;5031457;28;20841;-50
2021/12/07 13:59:26;;;;;;;14.60;14.00;;;20.30;51.60;;;;;;5031400;28;20488;-47
2021/12/07 14:01:55;;;;;;;13.67;13.23;;;20.20;51.70;;;;;;5031277;28;20448;-48
2021/12/07 14:04:24;;;;;;;13.90;13.40;;;20.10;51.90;;;;;;5031430;28;20807;-48